createdAt,value
2022-10-11T00:01:57.491Z,101212.38
2022-10-11T00:04:27.863Z,101219.47
2022-10-11T00:06:59.284Z,101214.19
2022-10-11T00:09:29.453Z,101213.31
2022-10-11T00:11:59.487Z,101215.97
2022-10-11T00:14:29.572Z,101216.84
2022-10-11T00:16:59.729Z,101211.56
2022-10-11T00:19:29.693Z,101215.06
2022-10-11T00:22:01.431Z,101216.78
2022-10-11T00:24:31.045Z,101211.47
2022-10-11T00:27:01.313Z,101213.19
2022-10-11T00:29:31.412Z,101210.53
2022-10-11T00:32:01.554Z,101209.63
2022-10-11T00:34:31.811Z,101218.38
2022-10-11T00:37:03.326Z,101213.03
2022-10-11T00:39:33.511Z,101215.69
2022-10-11T00:42:03.583Z,101218.25
2022-10-11T00:44:35.131Z,101221.72
2022-10-11T00:47:10.613Z,101209.34
2022-10-11T00:49:44.663Z,101210.25
2022-10-11T00:52:22.282Z,101207.59
2022-10-11T00:54:53.023Z,101214.63
2022-10-11T00:57:26.313Z,101214.53
2022-10-11T00:59:57.951Z,101215.41
2022-10-11T01:02:30.623Z,101209.22
2022-10-11T01:05:18.286Z,101211.88
2022-10-11T01:07:53.551Z,101204.00
2022-10-11T01:10:24.693Z,101216.31
2022-10-11T01:13:07.742Z,101216.31
2022-10-11T01:15:43.937Z,101221.66
2022-10-11T01:18:20.970Z,101212.03
2022-10-11T01:21:02.161Z,101207.63
2022-10-11T01:24:04.704Z,101209.44
2022-10-11T01:27:20.971Z,101215.50
2022-10-11T01:30:01.642Z,101220.81
2022-10-11T01:32:40.077Z,101226.91
2022-10-11T01:35:18.481Z,101222.50
2022-10-11T01:37:56.192Z,101223.34
2022-10-11T01:40:32.932Z,101223.31
2022-10-11T01:43:05.204Z,101224.25
2022-10-11T01:45:36.962Z,101226.13
2022-10-11T01:48:10.771Z,101223.50
2022-10-11T01:50:46.793Z,101227.13
2022-10-11T01:53:48.123Z,101230.75
2022-10-11T01:56:33.092Z,101218.47
2022-10-11T01:59:37.502Z,101217.66
2022-10-11T02:02:18.851Z,101215.91
2022-10-11T02:04:52.053Z,101216.78
2022-10-11T02:07:25.749Z,101223.03
2022-10-11T02:10:03.592Z,101219.50
2022-10-11T02:12:40.042Z,101219.50
2022-10-11T02:15:14.080Z,101224.81
2022-10-11T02:17:49.410Z,101219.47
2022-10-11T02:20:23.441Z,101223.91
2022-10-11T02:22:58.291Z,101224.78
2022-10-11T02:25:34.163Z,101223.91
2022-10-11T02:28:07.680Z,101231.88
2022-10-11T02:30:39.104Z,101228.31
2022-10-11T02:33:13.112Z,101235.38
2022-10-11T02:35:50.005Z,101230.09
2022-10-11T02:38:25.132Z,101234.53
2022-10-11T02:40:59.600Z,101240.72
2022-10-11T02:43:36.903Z,101246.88
2022-10-11T02:46:09.749Z,101247.78
2022-10-11T02:48:40.273Z,101248.63
2022-10-11T02:51:16.633Z,101255.72
2022-10-11T02:53:46.620Z,101250.44
2022-10-11T02:56:16.839Z,101253.94
2022-10-11T02:58:46.934Z,101257.50
2022-10-11T03:01:16.978Z,101254.81
2022-10-11T03:03:47.347Z,101254.81
2022-10-11T03:06:18.951Z,101259.25
2022-10-11T03:08:49.265Z,101255.69
2022-10-11T03:11:19.422Z,101260.03
2022-10-11T03:13:49.543Z,101254.75
2022-10-11T03:16:19.981Z,101251.16
2022-10-11T03:18:49.951Z,101265.34
2022-10-11T03:21:21.530Z,101266.13
2022-10-11T03:23:51.621Z,101271.41
2022-10-11T03:26:22.192Z,101272.31
2022-10-11T03:28:52.231Z,101274.94
2022-10-11T03:31:23.924Z,101281.06
2022-10-11T03:33:54.182Z,101280.16
2022-10-11T03:36:25.613Z,101280.13
2022-10-11T03:38:55.881Z,101287.19
2022-10-11T03:41:25.910Z,101288.97
2022-10-11T03:43:55.989Z,101286.31
2022-10-11T03:46:26.151Z,101283.66
2022-10-11T03:48:56.201Z,101293.38
2022-10-11T03:51:27.891Z,101301.34
2022-10-11T03:53:57.530Z,101282.75
2022-10-11T03:56:27.921Z,101299.56
2022-10-11T03:58:57.890Z,101306.66
2022-10-11T04:01:28.245Z,101315.50
2022-10-11T04:03:58.642Z,101312.84
2022-10-11T04:06:30.301Z,101307.50
2022-10-11T04:09:00.421Z,101322.50
2022-10-11T04:11:30.691Z,101326.88
2022-10-11T04:14:00.821Z,101320.69
2022-10-11T04:16:31.272Z,101320.72
2022-10-11T04:19:01.180Z,101332.16
2022-10-11T04:21:32.619Z,101326.03
2022-10-11T04:24:02.772Z,101330.53
2022-10-11T04:26:33.149Z,101338.53
2022-10-11T04:29:03.383Z,101334.00
2022-10-11T04:31:33.469Z,101332.97
2022-10-11T04:34:03.460Z,101346.22
2022-10-11T04:36:35.242Z,101350.66
2022-10-11T04:39:06.591Z,101346.28
2022-10-11T04:41:36.751Z,101344.50
2022-10-11T04:44:06.810Z,101350.59
2022-10-11T04:46:38.250Z,101362.00
2022-10-11T04:49:08.129Z,101367.41
2022-10-11T04:51:40.881Z,101378.94
2022-10-11T04:54:10.800Z,101377.16
2022-10-11T04:56:41.389Z,101380.72
2022-10-11T04:59:12.091Z,101386.06
2022-10-11T05:01:42.676Z,101393.22
2022-10-11T05:04:12.771Z,101384.31
2022-10-11T05:06:44.660Z,101394.94
2022-10-11T05:09:15.222Z,101408.19
2022-10-11T05:11:45.519Z,101414.47
2022-10-11T05:14:15.510Z,101410.91
2022-10-11T05:16:45.482Z,101426.03
2022-10-11T05:19:15.691Z,101430.47
2022-10-11T05:21:47.041Z,101424.25
2022-10-11T05:24:17.350Z,101438.47
2022-10-11T05:26:47.192Z,101446.50
2022-10-11T05:29:17.380Z,101444.69
2022-10-11T05:31:47.809Z,101449.09
2022-10-11T05:34:17.852Z,101457.97
2022-10-11T05:36:49.520Z,101462.44
2022-10-11T05:39:19.631Z,101458.88
2022-10-11T05:41:49.874Z,101468.66
2022-10-11T05:44:22.142Z,101465.97
2022-10-11T05:46:52.392Z,101475.75
2022-10-11T05:49:22.551Z,101489.00
2022-10-11T05:51:54.180Z,101489.00
2022-10-11T05:54:24.521Z,101490.81
2022-10-11T05:56:54.510Z,101496.97
2022-10-11T05:59:25.873Z,101491.66
2022-10-11T06:01:55.956Z,101499.59
2022-10-11T06:04:26.381Z,101501.38
2022-10-11T06:06:57.995Z,101511.13
2022-10-11T06:09:28.392Z,101509.34
2022-10-11T06:11:58.480Z,101527.97
2022-10-11T06:14:28.452Z,101523.53
2022-10-11T06:16:58.738Z,101527.94
2022-10-11T06:19:28.800Z,101536.78
2022-10-11T06:22:00.843Z,101534.97
2022-10-11T06:24:31.020Z,101541.19
2022-10-11T06:27:01.271Z,101549.16
2022-10-11T06:29:31.262Z,101552.69
2022-10-11T06:32:01.543Z,101555.31
2022-10-11T06:34:31.459Z,101560.63
2022-10-11T06:37:02.840Z,101565.03
2022-10-11T06:39:33.180Z,101565.00
2022-10-11T06:42:03.480Z,101569.44
2022-10-11T06:44:33.501Z,101579.22
2022-10-11T06:47:03.840Z,101570.34
2022-10-11T06:49:33.862Z,101593.38
2022-10-11T06:52:05.670Z,101592.50
2022-10-11T06:54:35.229Z,101601.34
2022-10-11T06:57:05.472Z,101595.13
2022-10-11T06:59:35.381Z,101598.66
2022-10-11T07:02:05.220Z,101599.56
2022-10-11T07:04:35.372Z,101596.84
2022-10-11T07:07:06.809Z,101601.97
2022-10-11T07:09:37.118Z,101603.94
2022-10-11T07:12:07.731Z,101614.06
2022-10-11T07:14:38.000Z,101614.47
2022-10-11T07:17:07.963Z,101627.06
2022-10-11T07:19:38.071Z,101623.31
2022-10-11T07:22:27.760Z,101629.31
2022-10-11T07:24:57.690Z,101629.66
2022-10-11T07:27:28.071Z,101630.91
2022-10-11T07:29:58.159Z,101637.97
2022-10-11T07:32:28.431Z,101634.34
2022-10-11T07:34:58.911Z,101638.00
2022-10-11T07:37:30.391Z,101641.16
2022-10-11T07:40:00.800Z,101641.72
2022-10-11T07:42:30.929Z,101644.63
2022-10-11T07:45:01.198Z,101642.78
2022-10-11T07:47:31.252Z,101649.97
2022-10-11T07:50:01.413Z,101656.88
2022-10-11T07:52:33.360Z,101654.53
2022-10-11T07:55:03.280Z,101651.59
2022-10-11T07:57:33.742Z,101658.38
2022-10-11T08:00:04.120Z,101662.47
2022-10-11T08:02:42.159Z,101665.22
2022-10-11T08:05:12.099Z,101659.88
2022-10-11T08:07:43.727Z,101667.53
2022-10-11T08:10:13.997Z,101663.97
2022-10-11T08:12:43.986Z,101668.06
2022-10-11T08:15:14.088Z,101666.13
2022-10-11T08:17:44.497Z,101673.03
2022-10-11T08:20:14.581Z,101673.72
2022-10-11T08:22:46.038Z,101679.34
2022-10-11T08:25:16.371Z,101681.47
2022-10-11T08:27:46.452Z,101673.88
2022-10-11T08:30:16.599Z,101666.38
2022-10-11T08:32:46.939Z,101682.31
2022-10-11T08:35:17.141Z,101682.31
2022-10-11T08:37:48.579Z,101688.66
2022-10-11T08:40:22.454Z,101688.47
2022-10-11T08:43:00.844Z,101695.84
2022-10-11T08:45:37.032Z,101696.66
2022-10-11T08:48:15.270Z,101706.97
2022-10-11T08:50:48.679Z,101711.44
2022-10-11T08:53:27.052Z,101719.00
2022-10-11T08:55:57.581Z,101719.50
2022-10-11T08:58:39.161Z,101716.09
2022-10-11T09:01:16.178Z,101724.31
2022-10-11T09:03:48.380Z,101714.53
2022-10-11T09:06:29.910Z,101716.28
2022-10-11T09:12:09.603Z,101712.84
2022-10-11T09:14:56.341Z,101728.97
2022-10-11T09:17:41.027Z,101728.88
2022-10-11T09:20:45.792Z,101738.88
2022-10-11T09:23:27.709Z,101733.13
2022-10-11T09:26:01.712Z,101733.75
2022-10-11T09:28:44.965Z,101733.06
2022-10-11T09:31:15.300Z,101734.53
2022-10-11T09:33:49.719Z,101753.75
2022-10-11T09:36:25.773Z,101741.31
2022-10-11T09:39:06.609Z,101704.44
2022-10-11T09:41:44.471Z,101734.31
2022-10-11T09:44:29.511Z,101750.13
2022-10-11T09:47:00.710Z,101742.19
2022-10-11T09:49:37.591Z,101748.72
2022-10-11T09:52:16.490Z,101746.88
2022-10-11T09:54:48.859Z,101762.84
2022-10-11T09:57:26.292Z,101769.47
2022-10-11T10:00:08.920Z,101764.91
2022-10-11T10:02:44.062Z,101768.56
2022-10-11T10:05:22.763Z,101772.50
2022-10-11T10:08:08.325Z,101777.75
2022-10-11T10:10:41.618Z,101781.03
2022-10-11T10:13:23.571Z,101782.47
2022-10-11T10:15:58.241Z,101795.59
2022-10-11T10:18:35.296Z,101784.91
2022-10-11T10:21:07.655Z,101790.72
2022-10-11T10:23:39.256Z,101803.22
2022-10-11T10:26:15.647Z,101796.06
2022-10-11T10:29:17.103Z,101814.00
2022-10-11T10:32:14.671Z,101824.38
2022-10-11T10:34:58.914Z,101826.50
2022-10-11T10:37:33.957Z,101830.09
2022-10-11T10:40:09.872Z,101832.81
2022-10-11T10:42:39.904Z,101831.09
2022-10-11T10:45:20.923Z,101837.41
2022-10-11T10:48:24.550Z,101842.75
2022-10-11T10:51:00.459Z,101848.09
2022-10-11T10:53:36.229Z,101846.31
2022-10-11T10:56:12.532Z,101842.75
2022-10-11T10:58:54.780Z,101848.16
2022-10-11T11:01:28.327Z,101847.16
2022-10-11T11:04:09.182Z,101848.69
2022-10-11T11:06:47.519Z,101839.53
2022-10-11T11:09:31.317Z,101845.78
2022-10-11T11:12:14.091Z,101848.66
2022-10-11T11:14:54.621Z,101851.50
2022-10-11T11:17:34.530Z,101845.38
2022-10-11T11:20:22.428Z,101850.75
2022-10-11T11:23:02.328Z,101849.88
2022-10-11T11:25:44.676Z,101859.63
2022-10-11T11:28:38.071Z,101865.66
2022-10-11T11:31:17.697Z,101871.97
2022-10-11T11:33:56.837Z,101863.16
2022-10-11T11:36:38.008Z,101871.31
2022-10-11T11:39:15.280Z,101856.94
2022-10-11T11:41:52.847Z,101867.44
2022-10-11T11:44:29.777Z,101860.97
2022-10-11T11:47:02.924Z,101863.44
2022-10-11T11:49:37.484Z,101852.56
2022-10-11T11:52:16.068Z,101855.00
2022-10-11T11:54:53.180Z,101863.75
2022-10-11T11:57:37.198Z,101862.56
2022-10-11T12:00:15.322Z,101874.78
2022-10-11T12:02:50.468Z,101868.44
2022-10-11T12:05:22.826Z,101883.13
2022-10-11T12:08:01.379Z,101879.91
2022-10-11T12:10:36.679Z,101886.38
2022-10-11T12:13:21.267Z,101877.28
2022-10-11T12:16:02.975Z,101878.25
2022-10-11T12:18:33.440Z,101874.59
2022-10-11T12:21:09.496Z,101868.28
2022-10-11T12:23:52.356Z,101886.22
2022-10-11T12:26:45.058Z,101875.69
2022-10-11T12:29:37.505Z,101878.78
2022-10-11T12:32:50.398Z,101882.47
2022-10-11T12:35:51.281Z,101880.72
2022-10-11T12:38:24.491Z,101878.56
2022-10-11T12:40:57.639Z,101881.78
2022-10-11T12:43:37.801Z,101876.50
2022-10-11T12:46:40.743Z,101870.34
2022-10-11T12:49:29.251Z,101874.53
2022-10-11T12:52:02.961Z,101876.31
2022-10-11T12:54:56.583Z,101870.13
2022-10-11T12:58:16.060Z,101884.69
2022-10-11T13:01:21.075Z,101897.50
2022-10-11T13:03:59.857Z,101905.59
2022-10-11T13:06:33.559Z,101909.22
2022-10-11T13:09:09.050Z,101903.91
2022-10-11T13:11:45.186Z,101908.44
2022-10-11T13:14:20.848Z,101912.88
2022-10-11T13:17:00.453Z,101922.84
2022-10-11T13:19:31.415Z,101925.63
2022-10-11T13:22:04.598Z,101920.38
2022-10-11T13:24:40.545Z,101925.72
2022-10-11T13:27:18.297Z,101923.88
2022-10-11T13:29:51.931Z,101926.56
2022-10-11T13:32:27.520Z,101928.34
2022-10-11T13:34:59.526Z,101927.41
2022-10-11T13:37:31.212Z,101918.50
2022-10-11T13:40:01.292Z,101927.41
2022-10-11T13:42:34.541Z,101920.22
2022-10-11T13:45:11.071Z,101928.22
2022-10-11T13:47:41.887Z,101927.31
2022-10-11T13:50:24.416Z,101931.81
2022-10-11T13:52:59.919Z,101930.94
2022-10-11T13:55:32.342Z,101937.06
2022-10-11T13:58:04.585Z,101939.78
2022-10-11T14:00:38.365Z,101938.97
2022-10-11T14:03:19.247Z,101943.38
2022-10-11T14:05:57.278Z,101938.94
2022-10-11T14:08:33.209Z,101942.50
2022-10-11T14:11:06.652Z,101946.97
2022-10-11T14:13:39.258Z,101958.59
2022-10-11T14:16:13.843Z,101950.63
2022-10-11T14:18:47.552Z,101955.97
2022-10-11T14:21:37.162Z,101960.50
2022-10-11T14:24:10.873Z,101956.94
2022-10-11T14:26:43.933Z,101967.56
2022-10-11T14:29:19.582Z,101974.69
2022-10-11T14:32:02.983Z,101977.34
2022-10-11T14:34:33.974Z,101972.88
2022-10-11T14:37:06.644Z,101975.47
2022-10-11T14:39:37.145Z,101967.50
2022-10-11T14:42:07.455Z,101980.81
2022-10-11T14:44:37.772Z,101969.28
2022-10-11T14:47:12.222Z,101979.94
2022-10-11T14:49:44.975Z,101972.81
2022-10-11T14:52:16.102Z,101979.00
2022-10-11T14:54:46.126Z,101980.78
2022-10-11T14:57:16.680Z,101984.31
2022-10-11T14:59:46.783Z,101981.66
2022-10-11T15:02:18.576Z,101976.31
2022-10-11T15:04:48.944Z,101976.28
2022-10-11T15:07:19.427Z,101984.28
2022-10-11T15:09:49.756Z,101990.53
2022-10-11T15:12:20.095Z,101995.81
2022-10-11T15:14:50.102Z,101991.34
2022-10-11T15:17:21.605Z,101993.13
2022-10-11T15:19:51.835Z,101997.56
2022-10-11T15:22:21.885Z,101986.94
2022-10-11T15:24:52.635Z,101990.44
2022-10-11T15:27:25.875Z,101997.50
2022-10-11T15:29:58.882Z,101998.34
2022-10-11T15:32:30.454Z,101999.25
2022-10-11T15:35:01.024Z,102004.59
2022-10-11T15:37:35.123Z,102004.56
2022-10-11T15:40:20.413Z,102002.75
2022-10-11T15:42:56.100Z,102001.88
2022-10-11T15:45:30.407Z,101992.13
2022-10-11T15:48:03.614Z,102001.84
2022-10-11T15:50:35.893Z,102005.34
2022-10-11T15:53:10.271Z,102009.69
2022-10-11T15:55:43.144Z,102011.44
2022-10-11T15:58:16.023Z,102015.81
2022-10-11T16:00:47.939Z,102013.09
2022-10-11T16:03:20.137Z,102022.75
2022-10-11T16:05:51.008Z,102027.13
2022-10-11T16:08:21.478Z,102022.69
2022-10-11T16:10:53.149Z,102033.25
2022-10-11T16:13:23.334Z,102032.38
2022-10-11T16:15:55.362Z,102029.63
2022-10-11T16:18:34.850Z,102036.56
2022-10-11T16:21:10.407Z,102031.19
2022-10-11T16:23:40.930Z,102035.59
2022-10-11T16:26:16.740Z,102038.09
2022-10-11T16:28:48.021Z,102034.34
2022-10-11T16:31:21.184Z,102040.59
2022-10-11T16:33:53.796Z,102053.78
2022-10-11T16:36:40.454Z,102050.31
2022-10-11T16:39:13.574Z,102054.69
2022-10-11T16:41:44.413Z,102051.13
2022-10-11T16:44:16.174Z,102052.75
2022-10-11T16:46:48.625Z,102044.72
2022-10-11T16:49:22.734Z,102058.91
2022-10-11T16:51:53.617Z,102051.75
2022-10-11T16:54:24.313Z,102050.81
2022-10-11T16:56:55.105Z,102053.38
2022-10-11T16:59:27.952Z,102049.78
2022-10-11T17:02:01.885Z,102060.19
2022-10-11T17:04:34.836Z,102059.13
2022-10-11T17:07:05.194Z,102059.88
2022-10-11T17:09:36.034Z,102065.97
2022-10-11T17:12:09.452Z,102066.72
2022-10-11T17:14:40.074Z,102077.13
2022-10-11T17:17:11.711Z,102067.22
2022-10-11T17:19:45.516Z,102070.78
2022-10-11T17:22:17.652Z,102075.94
2022-10-11T17:24:48.285Z,102070.50
2022-10-11T17:27:18.649Z,102076.63
2022-10-11T17:29:50.742Z,102079.22
2022-10-11T17:32:22.881Z,102078.34
2022-10-11T17:34:57.892Z,102082.69
2022-10-11T17:37:29.456Z,102075.47
2022-10-11T17:40:00.395Z,102077.13
2022-10-11T17:42:30.762Z,102079.66
2022-10-11T17:45:01.883Z,102085.75
2022-10-11T17:47:32.224Z,102085.59
2022-10-11T17:50:04.134Z,102081.84
2022-10-11T17:52:34.953Z,102077.44
2022-10-11T17:55:05.073Z,102080.03
2022-10-11T17:57:35.454Z,102079.94
2022-10-11T18:00:07.254Z,102080.75
2022-10-11T18:02:40.462Z,102083.34
2022-10-11T18:05:14.875Z,102079.69
2022-10-11T18:07:45.223Z,102090.78
2022-10-11T18:10:15.223Z,102086.25
2022-10-11T18:12:45.534Z,102089.81
2022-10-11T18:15:15.722Z,102088.13
2022-10-11T18:17:47.648Z,102082.81
2022-10-11T18:20:19.345Z,102076.63
2022-10-11T18:22:50.815Z,102073.13
2022-10-11T18:25:20.924Z,102073.09
2022-10-11T18:27:52.234Z,102083.50
2022-10-11T18:30:22.653Z,102080.81
2022-10-11T18:32:53.362Z,102084.44
2022-10-11T18:35:24.824Z,102085.22
2022-10-11T18:38:00.043Z,102084.34
2022-10-11T18:40:30.923Z,102088.06
2022-10-11T18:43:01.061Z,102081.22
2022-10-11T18:45:31.284Z,102083.19
2022-10-11T18:48:01.581Z,102085.13
2022-10-11T18:50:35.763Z,102089.56
2022-10-11T18:53:06.255Z,102082.56
2022-10-11T18:55:36.506Z,102084.09
2022-10-11T18:58:06.484Z,102084.59
2022-10-11T19:00:41.321Z,102085.47
2022-10-11T19:03:11.672Z,102082.44
2022-10-11T19:05:43.572Z,102084.25
2022-10-11T19:08:13.155Z,102081.59
2022-10-11T19:10:44.404Z,102080.69
2022-10-11T19:13:14.592Z,102079.69
2022-10-11T19:15:47.867Z,102079.66
2022-10-11T19:18:22.754Z,102084.31
2022-10-11T19:20:55.128Z,102080.88
2022-10-11T19:23:25.192Z,102086.22
2022-10-11T19:25:59.278Z,102082.56
2022-10-11T19:28:29.977Z,102081.72
2022-10-11T19:31:05.044Z,102076.47
2022-10-11T19:33:36.473Z,102089.75
2022-10-11T19:36:08.261Z,102084.63
2022-10-11T19:38:38.412Z,102078.47
2022-10-11T19:41:08.773Z,102083.69
2022-10-11T19:43:38.891Z,102088.09
2022-10-11T19:46:10.975Z,102086.22
2022-10-11T19:48:44.548Z,102080.78
2022-10-11T19:51:22.760Z,102088.66
2022-10-11T19:54:00.382Z,102085.19
2022-10-11T19:56:35.011Z,102082.44
2022-10-11T19:59:07.963Z,102085.84
2022-10-11T20:01:41.079Z,102093.47
2022-10-11T20:04:33.110Z,102096.03
2022-10-11T20:07:05.213Z,102088.56
2022-10-11T20:09:36.120Z,102092.66
2022-10-11T20:12:06.863Z,102096.91
2022-10-11T20:14:36.808Z,102104.75
2022-10-11T20:17:09.861Z,102098.50
2022-10-11T20:19:40.392Z,102096.59
2022-10-11T20:22:12.495Z,102105.41
2022-10-11T20:24:42.966Z,102107.91
2022-10-11T20:27:13.281Z,102100.69
2022-10-11T20:29:43.507Z,102099.72
2022-10-11T20:32:13.821Z,102102.38
2022-10-11T20:34:44.952Z,102108.38
2022-10-11T20:37:16.870Z,102111.97
2022-10-11T20:39:46.976Z,102106.56
2022-10-11T20:42:17.462Z,102113.59
2022-10-11T20:44:49.561Z,102105.59
2022-10-11T20:47:20.265Z,102106.34
2022-10-11T20:49:50.865Z,102106.22
2022-10-11T20:52:23.094Z,102110.72
2022-10-11T20:54:53.429Z,102108.03
2022-10-11T20:57:23.909Z,102112.47
2022-10-11T20:59:53.965Z,102114.19
2022-10-11T21:02:24.166Z,102109.66
2022-10-11T21:04:54.483Z,102115.81
2022-10-11T21:07:26.417Z,102109.56
2022-10-11T21:09:56.999Z,102112.22
2022-10-11T21:12:27.620Z,102117.59
2022-10-11T21:14:57.739Z,102113.25
2022-10-11T21:17:28.192Z,102114.16
2022-10-11T21:20:01.199Z,102110.78
2022-10-11T21:22:36.956Z,102111.09
2022-10-11T21:25:08.116Z,102105.28
2022-10-11T21:27:38.372Z,102107.22
2022-10-11T21:30:09.519Z,102110.13
2022-10-11T21:32:39.730Z,102109.38
2022-10-11T21:35:09.632Z,102104.09
2022-10-11T21:37:41.696Z,102111.94
2022-10-11T21:40:12.113Z,102112.09
2022-10-11T21:42:42.387Z,102116.72
2022-10-11T21:45:12.903Z,102111.50
2022-10-11T21:47:44.545Z,102116.59
2022-10-11T21:50:14.983Z,102117.66
2022-10-11T21:52:46.636Z,102111.03
2022-10-11T21:55:16.678Z,102114.78
2022-10-11T21:57:47.172Z,102118.44
2022-10-11T22:00:17.175Z,102118.56
2022-10-11T22:02:47.891Z,102117.72
2022-10-11T22:05:18.331Z,102123.03
2022-10-11T22:07:49.890Z,102122.22
2022-10-11T22:10:20.242Z,102125.81
2022-10-11T22:12:50.301Z,102123.28
2022-10-11T22:15:20.410Z,102124.28
2022-10-11T22:17:50.685Z,102125.25
2022-10-11T22:20:20.586Z,102128.91
2022-10-11T22:22:54.556Z,102131.63
2022-10-11T22:25:24.996Z,102127.34
2022-10-11T22:27:54.936Z,102123.88
2022-10-11T22:30:25.064Z,102124.75
2022-10-11T22:32:55.275Z,102124.66
2022-10-11T22:35:25.307Z,102122.84
2022-10-11T22:37:56.735Z,102129.78
2022-10-11T22:40:26.937Z,102118.19
2022-10-11T22:42:56.995Z,102116.31
2022-10-11T22:45:26.947Z,102121.41
2022-10-11T22:47:57.156Z,102123.03
2022-10-11T22:50:27.142Z,102116.09
2022-10-11T22:52:58.605Z,102117.84
2022-10-11T22:55:29.153Z,102117.00
2022-10-11T22:57:59.257Z,102119.84
2022-10-11T23:00:29.567Z,102112.97
2022-10-11T23:03:00.146Z,102124.47
2022-10-11T23:05:30.293Z,102124.34
2022-10-11T23:08:01.984Z,102129.41
2022-10-11T23:10:31.881Z,102130.00
2022-10-11T23:13:02.105Z,102126.16
2022-10-11T23:15:32.179Z,102128.63
2022-10-11T23:18:02.193Z,102135.41
2022-10-11T23:20:32.478Z,102131.56
2022-10-11T23:23:03.940Z,102129.78
2022-10-11T23:25:34.184Z,102139.19
2022-10-11T23:28:04.431Z,102135.66
2022-10-11T23:30:34.696Z,102132.75
2022-10-11T23:33:04.791Z,102135.19
2022-10-11T23:35:37.041Z,102142.09
2022-10-11T23:38:08.674Z,102139.47
2022-10-11T23:40:38.875Z,102142.06
2022-10-11T23:43:08.792Z,102146.47
2022-10-11T23:45:38.930Z,102137.81
2022-10-11T23:48:09.463Z,102138.81
2022-10-11T23:50:39.310Z,102135.50
2022-10-11T23:53:10.763Z,102134.78
2022-10-11T23:55:41.190Z,102141.09
2022-10-11T23:58:11.203Z,102135.97
